Prospect, Louisiana
Current Conditions -  °F | °C
As of 6:53 PM on Wednesday 22 Oct 2014 (Local Time) from KAEX Reporting Station
Clear Clear  
Wind Chill: 64°   Ceiling: Unl
Heat Index: 64°   Visibility: 10mi
Dew Point: 56°   Wind: 3mph
Humidity: 75%   Direction: 40°NE
Pressure: 30.07"   Gusts: NA
Location:  31.4897°N, 92.5035°W
Report Text: KAEX 222353Z 04003KT 10SM CLR 18/13 A3007 RMK AO2 SLP184 T01780133 10261 20178 53003
Loading
Personal Weather Stations






























Interactive Weather Map
Tropical Storm Tracking
New forecast layout! Learn more

10-Day Weather Forecast

Advertisements
Track Severe Weather on mobile